Time;durP1;ratioP1;P1;durP2;ratioP2;P2;SDS_P1;SDS_P2;PMS_P1;PMS_P2;Temp;Humidity;BMP_temperature;BMP_pressure;BME280_temperature;BME280_humidity;BME280_pressure;Samples;Min_cycle;Max_cycle;Signal;HPM_P1;HPM_P2
2023/06/02 00:00:48;;;;;;;7.22;5.80;;;23.00;78.90;;;;;;6326130;27;83510;-70
2023/06/02 00:03:53;;;;;;;6.13;5.53;;;23.00;78.80;;;;;;6317787;27;84172;-70
2023/06/02 00:07:00;;;;;;;6.05;5.43;;;23.00;78.80;;;;;;6308700;27;82839;-70
2023/06/02 00:10:04;;;;;;;6.53;5.68;;;23.00;78.60;;;;;;6329411;27;84992;-70
2023/06/02 00:13:07;;;;;;;6.03;5.05;;;23.00;78.60;;;;;;6325644;27;83070;-69
2023/06/02 00:16:09;;;;;;;6.88;5.47;;;23.00;78.50;;;;;;6329996;27;83410;-70
2023/06/02 00:19:12;;;;;;;6.07;5.47;;;23.00;78.50;;;;;;6322477;27;84207;-70
2023/06/02 00:22:15;;;;;;;5.78;5.18;;;23.00;78.50;;;;;;6320093;27;82993;-70
2023/06/02 00:25:18;;;;;;;6.32;5.18;;;23.00;78.40;;;;;;6330076;27;84939;-70
2023/06/02 00:28:21;;;;;;;5.65;5.15;;;23.00;78.40;;;;;;6321959;27;84064;-70
2023/06/02 00:31:23;;;;;;;5.88;5.35;;;23.00;78.40;;;;;;6324649;27;84164;-70
2023/06/02 00:34:25;;;;;;;6.13;5.43;;;23.00;78.40;;;;;;6326418;27;84422;-70
2023/06/02 00:37:27;;;;;;;6.18;5.57;;;23.00;79.30;;;;;;6319030;27;82940;-71
2023/06/02 00:40:31;;;;;;;7.63;5.97;;;23.00;78.40;;;;;;6334591;27;84588;-70
2023/06/02 00:43:33;;;;;;;6.80;5.63;;;23.00;78.10;;;;;;6358405;27;83984;-70
2023/06/02 00:46:35;;;;;;;6.05;5.47;;;23.00;78.20;;;;;;6350896;27;83348;-70
2023/06/02 00:49:37;;;;;;;6.78;5.60;;;23.00;78.20;;;;;;6337575;27;84109;-70
2023/06/02 00:52:40;;;;;;;6.15;5.55;;;23.00;78.20;;;;;;6337173;27;84178;-70
2023/06/02 00:55:44;;;;;;;6.35;5.75;;;23.00;78.20;;;;;;6352780;27;84835;-70
2023/06/02 00:58:47;;;;;;;5.80;5.20;;;23.00;78.20;;;;;;6343196;27;83991;-70
2023/06/02 01:01:50;;;;;;;6.10;5.50;;;23.00;78.30;;;;;;6360180;27;84426;-70
2023/06/02 01:04:57;;;;;;;9.32;6.45;;;23.00;78.30;;;;;;6358935;27;83963;-70
2023/06/02 01:08:02;;;;;;;6.65;5.90;;;23.00;78.30;;;;;;6354278;27;84055;-71
2023/06/02 01:11:06;;;;;;;7.32;5.70;;;23.00;78.30;;;;;;6355692;27;83661;-71
2023/06/02 01:14:10;;;;;;;7.68;5.50;;;23.00;78.30;;;;;;6350185;27;84907;-70
2023/06/02 01:17:13;;;;;;;6.10;5.50;;;22.90;78.30;;;;;;6349785;27;83334;-70
2023/06/02 01:20:21;;;;;;;6.35;5.70;;;23.00;78.40;;;;;;6360188;27;84261;-70
2023/06/02 01:23:28;;;;;;;7.13;5.70;;;23.00;78.30;;;;;;6363243;27;84396;-70
2023/06/02 01:26:34;;;;;;;6.07;5.57;;;22.90;78.30;;;;;;6362480;27;83845;-71
2023/06/02 01:29:37;;;;;;;6.15;5.55;;;22.90;78.30;;;;;;6350901;27;84110;-70
2023/06/02 01:32:46;;;;;;;6.78;5.90;;;22.90;78.40;;;;;;6363304;27;82739;-70
2023/06/02 01:35:50;;;;;;;6.22;5.60;;;22.90;78.30;;;;;;6346231;27;84091;-70
2023/06/02 01:38:54;;;;;;;6.00;5.40;;;22.90;79.20;;;;;;6352890;27;82922;-70
2023/06/02 01:42:02;;;;;;;7.20;5.43;;;22.90;79.20;;;;;;6344761;27;83992;-71
2023/06/02 01:45:06;;;;;;;7.40;5.85;;;22.90;78.30;;;;;;6361938;27;82611;-71
2023/06/02 01:48:09;;;;;;;6.78;6.07;;;23.00;78.70;;;;;;6357036;27;83333;-71
2023/06/02 01:51:11;;;;;;;6.22;5.63;;;22.90;78.10;;;;;;6347992;27;83990;-70
2023/06/02 01:54:13;;;;;;;6.07;5.47;;;22.90;78.10;;;;;;6355099;27;84325;-70
2023/06/02 01:57:17;;;;;;;6.80;5.70;;;22.90;78.00;;;;;;6357969;27;84946;-70
2023/06/02 02:00:20;;;;;;;7.82;5.90;;;22.90;78.10;;;;;;6357320;27;83975;-70
2023/06/02 02:03:24;;;;;;;6.05;5.40;;;22.90;78.00;;;;;;6344028;27;83033;-71
2023/06/02 02:06:29;;;;;;;7.03;6.32;;;22.90;77.90;;;;;;6349347;27;84071;-70
2023/06/02 02:09:31;;;;;;;6.43;5.82;;;22.90;77.90;;;;;;6360801;27;84012;-71
2023/06/02 02:12:35;;;;;;;6.47;5.88;;;22.80;77.90;;;;;;6360422;27;84412;-71
2023/06/02 02:15:37;;;;;;;6.13;5.55;;;22.90;78.00;;;;;;6351775;27;84071;-71
2023/06/02 02:18:40;;;;;;;6.03;5.25;;;22.80;77.90;;;;;;6354561;27;83234;-71
2023/06/02 02:21:42;;;;;;;7.32;6.20;;;22.80;77.90;;;;;;6360756;27;84225;-71
2023/06/02 02:24:44;;;;;;;6.57;5.78;;;22.80;77.90;;;;;;6357158;27;82898;-70
2023/06/02 02:27:47;;;;;;;8.07;6.70;;;22.80;77.90;;;;;;6353502;27;86169;-71
2023/06/02 02:30:49;;;;;;;6.50;5.85;;;22.80;77.90;;;;;;6349782;27;82941;-71
2023/06/02 02:33:51;;;;;;;6.60;6.00;;;22.80;77.80;;;;;;6348997;27;83570;-71
2023/06/02 02:36:55;;;;;;;6.32;5.45;;;22.80;78.60;;;;;;6356341;27;83935;-71
2023/06/02 02:39:57;;;;;;;6.65;5.72;;;22.80;77.60;;;;;;6362519;27;83399;-70
2023/06/02 02:43:00;;;;;;;6.63;5.70;;;22.80;77.60;;;;;;6336303;27;84013;-71
2023/06/02 02:46:02;;;;;;;6.70;6.00;;;22.80;77.40;;;;;;6335337;27;84860;-71
2023/06/02 02:49:05;;;;;;;7.07;5.78;;;22.80;77.30;;;;;;6322194;27;83311;-71
2023/06/02 02:52:07;;;;;;;6.60;5.82;;;22.90;77.30;;;;;;6342165;27;84144;-71
2023/06/02 02:55:09;;;;;;;6.13;5.38;;;22.80;77.10;;;;;;6341223;27;83967;-71
2023/06/02 02:58:18;;;;;;;6.80;6.10;;;22.80;77.10;;;;;;6348347;27;84944;-71
2023/06/02 03:01:20;;;;;;;6.50;5.82;;;22.90;77.10;;;;;;6322649;27;82946;-71
2023/06/02 03:04:22;;;;;;;6.10;5.35;;;22.90;77.10;;;;;;6319767;27;85328;-71
2023/06/02 03:07:25;;;;;;;5.93;5.40;;;22.80;76.90;;;;;;6331722;27;84390;-70
2023/06/02 03:10:27;;;;;;;6.03;5.47;;;22.80;76.90;;;;;;6309204;27;84128;-72
2023/06/02 03:13:30;;;;;;;7.18;5.85;;;22.80;76.80;;;;;;6336341;27;84290;-71
2023/06/02 03:16:34;;;;;;;5.97;5.47;;;22.80;76.90;;;;;;6331477;27;84129;-71
2023/06/02 03:19:37;;;;;;;5.95;5.45;;;22.80;76.80;;;;;;6317942;27;83324;-71
2023/06/02 03:22:39;;;;;;;6.05;5.45;;;22.80;76.70;;;;;;6328237;27;84314;-71
2023/06/02 03:25:42;;;;;;;5.85;5.25;;;22.80;76.70;;;;;;6331218;27;84438;-71
2023/06/02 03:28:45;;;;;;;6.30;5.70;;;22.80;76.90;;;;;;6315713;27;85038;-71
2023/06/02 03:31:48;;;;;;;8.05;5.57;;;22.80;76.80;;;;;;6316831;27;84104;-71
2023/06/02 03:34:50;;;;;;;7.78;5.60;;;22.80;76.70;;;;;;6311354;27;83789;-72
2023/06/02 03:37:52;;;;;;;5.97;5.38;;;22.80;76.70;;;;;;6327776;27;84009;-71
2023/06/02 03:40:54;;;;;;;6.30;5.25;;;22.80;76.60;;;;;;6328732;27;84071;-70
2023/06/02 03:43:57;;;;;;;5.80;5.22;;;22.80;76.50;;;;;;6314166;27;84078;-71
2023/06/02 03:46:59;;;;;;;6.47;5.70;;;22.80;76.60;;;;;;6333650;27;84243;-71
2023/06/02 03:50:01;;;;;;;5.78;5.18;;;22.80;76.50;;;;;;6313239;27;83652;-71
2023/06/02 03:53:03;;;;;;;5.80;5.28;;;22.80;76.50;;;;;;6321042;27;82751;-70
2023/06/02 03:56:06;;;;;;;6.60;5.38;;;22.80;76.40;;;;;;6323901;27;84009;-71
2023/06/02 03:59:09;;;;;;;7.82;5.78;;;22.80;76.40;;;;;;6309435;27;84164;-71
2023/06/02 04:02:12;;;;;;;6.25;5.57;;;22.80;76.40;;;;;;6314671;27;84404;-71
2023/06/02 04:05:14;;;;;;;6.20;5.60;;;22.80;76.40;;;;;;6339724;27;83933;-71
2023/06/02 04:08:16;;;;;;;5.97;4.90;;;22.70;76.50;;;;;;6338536;27;84115;-71
2023/06/02 04:11:22;;;;;;;6.45;5.85;;;22.80;76.50;;;;;;6327610;27;84087;-70
2023/06/02 04:14:25;;;;;;;6.65;5.50;;;22.70;76.50;;;;;;6321780;27;84595;-71
2023/06/02 04:17:27;;;;;;;6.63;5.55;;;22.80;76.60;;;;;;6331309;27;84136;-71
2023/06/02 04:20:29;;;;;;;6.03;5.43;;;22.80;76.60;;;;;;6330869;27;83671;-71
2023/06/02 04:23:31;;;;;;;6.93;5.70;;;22.70;76.60;;;;;;6333920;27;84827;-71
2023/06/02 04:26:33;;;;;;;5.90;5.15;;;22.80;76.70;;;;;;6330841;27;82849;-71
2023/06/02 04:29:37;;;;;;;6.47;5.88;;;22.80;76.70;;;;;;6325775;27;85076;-71
2023/06/02 04:32:39;;;;;;;7.68;5.65;;;22.70;76.80;;;;;;6334634;27;83999;-70
2023/06/02 04:35:41;;;;;;;6.20;5.60;;;22.80;76.90;;;;;;6321261;27;82919;-70
2023/06/02 04:38:45;;;;;;;6.65;5.68;;;22.80;77.00;;;;;;6346417;27;84075;-70
2023/06/02 04:41:48;;;;;;;6.25;5.65;;;22.80;77.10;;;;;;6330014;27;83208;-71
2023/06/02 04:44:52;;;;;;;6.55;5.35;;;22.80;77.10;;;;;;6330894;27;84667;-71
2023/06/02 04:47:57;;;;;;;6.20;5.40;;;22.70;76.90;;;;;;6327303;27;84301;-71
2023/06/02 04:50:58;;;;;;;6.95;6.00;;;22.80;77.10;;;;;;6315019;27;83329;-70
2023/06/02 04:54:00;;;;;;;14.23;5.85;;;22.70;77.20;;;;;;6321143;27;84450;-71
2023/06/02 04:57:05;;;;;;;6.15;5.38;;;22.80;78.20;;;;;;6324229;27;84080;-73
2023/06/02 05:00:10;;;;;;;6.45;5.43;;;22.80;78.10;;;;;;6331214;27;84931;-72
2023/06/02 05:03:12;;;;;;;7.72;5.40;;;22.80;78.10;;;;;;6326145;27;83730;-71
2023/06/02 05:06:14;;;;;;;5.85;5.10;;;22.90;78.30;;;;;;6329298;27;84394;-71
2023/06/02 05:09:16;;;;;;;6.78;5.60;;;22.80;78.10;;;;;;6325794;27;84047;-72
2023/06/02 05:12:19;;;;;;;7.45;5.70;;;22.80;78.10;;;;;;6329787;27;84055;-72
2023/06/02 05:15:22;;;;;;;7.40;5.57;;;22.80;78.10;;;;;;6326002;27;84275;-71
2023/06/02 05:18:24;;;;;;;7.32;5.72;;;22.90;78.10;;;;;;6327345;27;84036;-72
2023/06/02 05:21:28;;;;;;;7.93;5.38;;;22.90;78.00;;;;;;6324458;27;83237;-72
2023/06/02 05:24:30;;;;;;;6.90;5.20;;;22.90;77.90;;;;;;6317639;27;83961;-71
2023/06/02 05:27:32;;;;;;;5.70;5.10;;;22.90;77.90;;;;;;6329286;27;83408;-71
2023/06/02 05:30:36;;;;;;;6.63;5.70;;;22.90;78.30;;;;;;6327053;27;85031;-70
2023/06/02 05:33:38;;;;;;;6.28;5.15;;;22.90;78.40;;;;;;6324289;27;83974;-71
2023/06/02 05:36:40;;;;;;;7.60;5.57;;;23.00;78.50;;;;;;6321320;27;84063;-71
2023/06/02 05:39:43;;;;;;;7.25;5.60;;;22.90;78.60;;;;;;6330158;27;84039;-70
2023/06/02 05:42:45;;;;;;;10.48;6.22;;;23.00;78.60;;;;;;6349954;27;84376;-71
2023/06/02 05:45:48;;;;;;;19.17;8.02;;;23.00;78.40;;;;;;6347759;27;84036;-70
2023/06/02 05:48:50;;;;;;;18.08;8.60;;;23.00;78.90;;;;;;6339320;27;84079;-71
2023/06/02 05:51:52;;;;;;;20.83;8.73;;;23.00;79.90;;;;;;6346015;27;83325;-70
2023/06/02 05:54:54;;;;;;;22.58;9.63;;;23.00;80.10;;;;;;6353323;27;84049;-70
2023/06/02 05:57:57;;;;;;;28.15;10.95;;;23.00;80.40;;;;;;6348106;27;84030;-71
2023/06/02 06:01:00;;;;;;;19.38;8.82;;;22.90;80.50;;;;;;6353091;27;84925;-71
2023/06/02 06:04:02;;;;;;;22.45;9.40;;;23.00;80.60;;;;;;6350058;27;83996;-70
2023/06/02 06:07:05;;;;;;;18.83;8.25;;;23.00;80.60;;;;;;6349880;27;84549;-70
2023/06/02 06:10:08;;;;;;;29.27;10.70;;;23.00;80.30;;;;;;6362970;27;83972;-70
2023/06/02 06:13:10;;;;;;;40.78;13.70;;;22.90;80.30;;;;;;6339742;27;84371;-70
2023/06/02 06:16:14;;;;;;;39.95;14.50;;;23.00;80.70;;;;;;6339464;27;84408;-70
2023/06/02 06:19:16;;;;;;;34.58;13.35;;;23.00;81.50;;;;;;6341107;27;84310;-71
2023/06/02 06:22:17;;;;;;;22.38;10.70;;;23.00;81.90;;;;;;6343701;27;83636;-70
2023/06/02 06:25:19;;;;;;;21.45;10.25;;;23.00;81.70;;;;;;6350549;27;83051;-70
2023/06/02 06:28:22;;;;;;;15.40;9.15;;;23.00;81.40;;;;;;6351388;27;84133;-70
2023/06/02 06:31:26;;;;;;;16.63;8.60;;;23.00;81.00;;;;;;6338779;27;85357;-70
2023/06/02 06:34:28;;;;;;;13.52;7.55;;;23.00;80.70;;;;;;6347580;27;84079;-71
2023/06/02 06:37:30;;;;;;;13.32;8.20;;;23.00;80.30;;;;;;6361117;27;82769;-70
2023/06/02 06:40:32;;;;;;;13.32;7.88;;;23.10;80.60;;;;;;6352613;27;84177;-70
2023/06/02 06:43:34;;;;;;;14.48;7.32;;;23.10;80.50;;;;;;6339841;27;84307;-71
2023/06/02 06:46:38;;;;;;;14.23;7.45;;;23.10;80.20;;;;;;6351182;27;84141;-70
2023/06/02 06:49:40;;;;;;;14.55;8.45;;;23.10;80.00;;;;;;6337588;27;84043;-70
2023/06/02 06:52:42;;;;;;;13.48;7.18;;;23.10;81.10;;;;;;6356234;27;83248;-71
2023/06/02 06:55:44;;;;;;;13.35;7.60;;;23.10;86.20;;;;;;6356668;27;84252;-71
2023/06/02 06:58:46;;;;;;;9.82;5.88;;;23.30;83.80;;;;;;6350632;27;84321;-70
2023/06/02 07:01:49;;;;;;;11.05;6.80;;;23.40;82.30;;;;;;6346104;27;85389;-71
2023/06/02 07:04:52;;;;;;;12.65;6.75;;;23.50;81.10;;;;;;6350858;27;84013;-71
2023/06/02 07:07:54;;;;;;;8.90;6.30;;;23.60;80.50;;;;;;6357745;27;84307;-71
2023/06/02 07:10:56;;;;;;;12.77;6.93;;;23.70;80.10;;;;;;6355840;27;84113;-70
2023/06/02 07:13:59;;;;;;;9.10;6.43;;;23.60;79.90;;;;;;6358693;27;84373;-70
2023/06/02 07:17:03;;;;;;;11.70;6.90;;;23.70;79.70;;;;;;6346862;27;84092;-70
2023/06/02 07:20:06;;;;;;;10.82;6.90;;;23.60;79.60;;;;;;6344974;27;84035;-71
2023/06/02 07:23:08;;;;;;;12.00;6.50;;;23.60;79.50;;;;;;6335082;27;83801;-71
2023/06/02 07:26:10;;;;;;;8.85;6.15;;;23.60;79.40;;;;;;6354762;27;83945;-71
2023/06/02 07:29:12;;;;;;;8.45;5.93;;;23.60;79.40;;;;;;6358393;27;84151;-71
2023/06/02 07:32:16;;;;;;;7.95;5.95;;;23.60;79.40;;;;;;6343062;27;85067;-70
2023/06/02 07:35:18;;;;;;;8.77;6.00;;;23.60;79.40;;;;;;6375273;27;84025;-71
2023/06/02 07:38:20;;;;;;;8.25;5.72;;;23.50;79.40;;;;;;6350488;27;84369;-70
2023/06/02 07:41:22;;;;;;;8.98;6.07;;;23.60;79.50;;;;;;6352931;27;84032;-71
2023/06/02 07:44:24;;;;;;;12.23;6.20;;;23.50;81.90;;;;;;6346698;27;84052;-71
2023/06/02 07:47:28;;;;;;;10.07;6.15;;;23.50;81.10;;;;;;6356653;27;84398;-72
2023/06/02 07:50:30;;;;;;;9.13;5.63;;;23.40;80.80;;;;;;6349296;27;84046;-71
2023/06/02 07:53:32;;;;;;;9.25;6.15;;;23.40;80.50;;;;;;6347246;27;83708;-71
2023/06/02 07:56:34;;;;;;;9.68;6.38;;;23.40;80.50;;;;;;6346039;27;84151;-72
2023/06/02 07:59:36;;;;;;;8.45;6.47;;;23.40;80.60;;;;;;6354972;27;84379;-71
2023/06/02 08:02:40;;;;;;;7.97;5.72;;;23.40;80.60;;;;;;6359542;27;84917;-71
2023/06/02 08:05:42;;;;;;;8.95;5.97;;;23.40;80.70;;;;;;6349299;27;84079;-71
2023/06/02 08:08:45;;;;;;;9.20;6.50;;;23.40;80.80;;;;;;6358136;27;84213;-71
2023/06/02 08:11:48;;;;;;;7.93;5.60;;;23.40;80.90;;;;;;6362117;27;84280;-72
2023/06/02 08:14:50;;;;;;;6.07;5.40;;;23.40;80.80;;;;;;6339387;27;84722;-71
2023/06/02 08:17:53;;;;;;;9.88;6.18;;;23.40;81.00;;;;;;6355572;27;84067;-71
2023/06/02 08:20:55;;;;;;;7.90;5.82;;;23.30;80.90;;;;;;6354096;27;83826;-71
2023/06/02 08:23:57;;;;;;;8.57;5.95;;;23.30;80.90;;;;;;6350794;27;83305;-71
2023/06/02 08:27:00;;;;;;;7.85;6.00;;;23.30;81.00;;;;;;6347842;27;84053;-71
2023/06/02 08:30:03;;;;;;;7.97;5.78;;;23.30;80.80;;;;;;6361246;27;83131;-70
2023/06/02 08:33:08;;;;;;;7.45;5.60;;;23.30;80.90;;;;;;6348613;27;84010;-71
2023/06/02 08:36:11;;;;;;;7.32;5.80;;;23.30;81.00;;;;;;6357977;27;84007;-71
2023/06/02 08:39:13;;;;;;;8.15;6.20;;;23.30;81.10;;;;;;6361034;27;84109;-71
2023/06/02 08:42:16;;;;;;;7.10;5.88;;;23.30;81.10;;;;;;6340252;27;84032;-71
2023/06/02 08:45:22;;;;;;;9.13;5.85;;;23.30;81.10;;;;;;6360349;27;84088;-71
2023/06/02 08:48:26;;;;;;;7.85;5.90;;;23.30;81.00;;;;;;6355662;27;83994;-71
2023/06/02 08:51:33;;;;;;;7.95;5.72;;;23.30;81.00;;;;;;6351985;27;83958;-71
2023/06/02 08:54:36;;;;;;;6.90;5.97;;;23.30;80.90;;;;;;6357160;27;83808;-71
2023/06/02 08:57:38;;;;;;;7.38;5.90;;;23.30;81.00;;;;;;6352422;27;84037;-71
2023/06/02 09:00:41;;;;;;;10.23;6.82;;;23.30;81.10;;;;;;6357054;27;84101;-71
2023/06/02 09:03:47;;;;;;;6.68;5.60;;;23.30;81.10;;;;;;6356457;27;84943;-70
2023/06/02 09:06:49;;;;;;;7.80;6.22;;;23.30;81.10;;;;;;6351037;27;83957;-69
2023/06/02 09:09:53;;;;;;;7.68;6.07;;;23.30;81.10;;;;;;6349052;27;84246;-70
2023/06/02 09:12:55;;;;;;;6.85;6.15;;;23.30;81.00;;;;;;6347157;27;82996;-70
2023/06/02 09:15:58;;;;;;;7.60;5.90;;;23.30;81.00;;;;;;6352363;27;84378;-70
2023/06/02 09:19:02;;;;;;;6.75;5.97;;;23.30;81.00;;;;;;6355143;27;84134;-70
2023/06/02 09:22:05;;;;;;;8.25;5.93;;;23.30;81.00;;;;;;6351047;27;83962;-70
2023/06/02 09:25:22;;;;;;;6.80;6.00;;;23.30;81.00;;;;;;6355591;27;83362;-69
2023/06/02 09:28:25;;;;;;;7.10;6.00;;;23.30;81.00;;;;;;6339345;27;83926;-70
2023/06/02 09:31:28;;;;;;;6.68;5.97;;;23.30;81.00;;;;;;6332383;27;83749;-69
2023/06/02 09:34:36;;;;;;;6.38;5.78;;;23.30;81.00;;;;;;6349874;27;85218;-70
2023/06/02 09:37:57;;;;;;;6.78;6.07;;;23.40;81.00;;;;;;6338321;27;84114;-69
2023/06/02 09:41:15;;;;;;;7.43;6.25;;;23.40;81.10;;;;;;6345132;27;84028;-69
2023/06/02 09:44:19;;;;;;;7.50;6.00;;;23.40;81.00;;;;;;6352230;27;84115;-69
2023/06/02 09:47:22;;;;;;;7.05;6.10;;;23.40;81.00;;;;;;6358455;27;83185;-69
2023/06/02 09:50:36;;;;;;;7.35;6.32;;;23.40;81.00;;;;;;6361250;27;83094;-70
2023/06/02 09:53:38;;;;;;;6.85;6.15;;;23.40;81.00;;;;;;6352057;27;82881;-69
2023/06/02 09:56:41;;;;;;;7.60;6.05;;;23.30;81.00;;;;;;6356472;27;83275;-70
2023/06/02 09:59:44;;;;;;;7.45;6.70;;;23.30;81.00;;;;;;6354973;27;85080;-69
2023/06/02 10:02:46;;;;;;;6.82;6.03;;;23.30;81.10;;;;;;6357019;27;84051;-70
2023/06/02 10:06:03;;;;;;;6.40;5.78;;;23.30;81.10;;;;;;6351830;27;84958;-69
2023/06/02 10:09:18;;;;;;;6.57;5.85;;;23.30;81.20;;;;;;6352378;27;82952;-70
2023/06/02 10:12:34;;;;;;;7.78;6.80;;;23.30;81.10;;;;;;6351635;27;84060;-69
2023/06/02 10:15:50;;;;;;;7.18;6.22;;;23.30;81.10;;;;;;6358275;27;82870;-69
2023/06/02 10:19:25;;;;;;;6.90;5.70;;;23.30;81.30;;;;;;6352540;27;84067;-69
2023/06/02 10:22:50;;;;;;;7.35;6.35;;;23.30;81.30;;;;;;6350844;27;83228;-70
2023/06/02 10:26:05;;;;;;;7.47;5.85;;;23.30;81.30;;;;;;6347232;27;83223;-70
2023/06/02 10:29:09;;;;;;;6.32;5.72;;;23.30;81.30;;;;;;6364817;27;83659;-71
2023/06/02 10:32:22;;;;;;;7.35;5.90;;;23.30;81.30;;;;;;6355655;27;83978;-70
2023/06/02 10:35:56;;;;;;;7.55;6.07;;;23.30;81.20;;;;;;6357844;27;83353;-71
2023/06/02 10:39:46;;;;;;;6.15;5.55;;;23.30;81.10;;;;;;6354920;27;83816;-71
2023/06/02 10:43:22;;;;;;;6.47;5.65;;;23.30;81.10;;;;;;6362030;27;84023;-71
2023/06/02 10:46:24;;;;;;;8.10;5.75;;;23.30;81.20;;;;;;6254763;27;84088;-72
2023/06/02 10:49:51;;;;;;;7.93;5.93;;;23.30;81.10;;;;;;6248855;27;82956;-71
2023/06/02 10:53:12;;;;;;;6.50;5.78;;;23.30;81.20;;;;;;6248219;27;84096;-71
2023/06/02 10:56:41;;;;;;;7.72;5.65;;;23.30;81.20;;;;;;6263659;27;84173;-72
2023/06/02 10:59:42;;;;;;;6.38;5.78;;;23.30;81.10;;;;;;6250572;27;84073;-71
2023/06/02 11:02:45;;;;;;;7.75;5.95;;;23.30;81.10;;;;;;6253639;27;83389;-71
2023/06/02 11:05:49;;;;;;;6.22;5.60;;;23.30;81.10;;;;;;6240266;27;84343;-71
2023/06/02 11:08:57;;;;;;;6.40;5.80;;;23.30;81.10;;;;;;6253893;28;84202;-72
2023/06/02 11:12:00;;;;;;;7.07;5.70;;;23.30;81.00;;;;;;6250889;27;83836;-71
2023/06/02 11:15:19;;;;;;;5.82;5.32;;;23.30;81.00;;;;;;6244323;27;84438;-71
2023/06/02 11:18:41;;;;;;;6.15;5.55;;;23.30;81.00;;;;;;6340893;27;84116;-72
2023/06/02 11:21:44;;;;;;;6.03;5.43;;;23.30;80.90;;;;;;6342905;27;84103;-73
2023/06/02 11:24:58;;;;;;;7.38;5.90;;;23.30;80.80;;;;;;6346516;27;84016;-71
2023/06/02 11:28:01;;;;;;;6.45;5.72;;;23.30;80.80;;;;;;6352374;27;84136;-71
2023/06/02 11:31:07;;;;;;;5.90;5.30;;;23.30;81.00;;;;;;6352994;27;84063;-70
2023/06/02 11:34:16;;;;;;;6.00;5.40;;;23.30;81.30;;;;;;6343683;27;82167;-71
2023/06/02 11:37:20;;;;;;;5.72;5.15;;;23.30;81.50;;;;;;6347104;27;83998;-71
2023/06/02 11:40:22;;;;;;;5.60;5.00;;;23.30;81.50;;;;;;6350048;27;84024;-71
2023/06/02 11:43:26;;;;;;;6.15;5.32;;;23.30;81.30;;;;;;6344025;27;84991;-71
2023/06/02 11:46:28;;;;;;;6.20;5.50;;;23.30;81.30;;;;;;6371268;27;82945;-72
2023/06/02 11:49:37;;;;;;;7.00;6.05;;;23.30;81.20;;;;;;6343055;27;84054;-73
2023/06/02 11:52:39;;;;;;;7.47;6.18;;;23.30;81.10;;;;;;6366014;27;83001;-71
2023/06/02 11:55:42;;;;;;;6.20;5.60;;;23.30;81.10;;;;;;6368221;27;84380;-72
2023/06/02 11:58:46;;;;;;;6.18;5.63;;;23.30;81.10;;;;;;6362012;27;82940;-71
2023/06/02 12:01:48;;;;;;;6.97;5.82;;;23.30;81.10;;;;;;6356641;27;84011;-71
2023/06/02 12:04:50;;;;;;;6.13;5.30;;;23.30;81.00;;;;;;6350997;27;83341;-71
2023/06/02 12:07:52;;;;;;;5.50;5.00;;;23.30;81.00;;;;;;6344851;27;84107;-71
2023/06/02 12:10:54;;;;;;;6.32;5.53;;;23.30;81.00;;;;;;6338401;27;84065;-72
2023/06/02 12:14:00;;;;;;;8.00;5.70;;;23.30;81.50;;;;;;6342490;27;85137;-71
2023/06/02 12:17:05;;;;;;;6.07;5.47;;;23.30;81.80;;;;;;6357204;27;84014;-72
2023/06/02 12:20:08;;;;;;;5.82;5.22;;;23.30;81.50;;;;;;6359629;27;83968;-73
2023/06/02 12:23:11;;;;;;;7.03;5.32;;;23.30;81.20;;;;;;6359255;27;82928;-72
2023/06/02 12:26:13;;;;;;;7.15;5.45;;;23.30;82.30;;;;;;6341836;27;85383;-73
2023/06/02 12:29:17;;;;;;;6.60;5.03;;;23.30;81.30;;;;;;6351582;27;84618;-72
2023/06/02 12:32:27;;;;;;;8.05;5.43;;;23.40;81.30;;;;;;6352350;27;82965;-72
2023/06/02 12:35:29;;;;;;;5.55;5.03;;;23.30;81.10;;;;;;6354062;27;83169;-73
2023/06/02 12:38:31;;;;;;;7.05;5.28;;;23.40;81.10;;;;;;6360761;27;83989;-73
2023/06/02 12:41:33;;;;;;;7.38;5.18;;;23.30;81.10;;;;;;6308685;27;85253;-72
2023/06/02 12:44:36;;;;;;;5.72;4.97;;;23.30;81.00;;;;;;6318224;27;85089;-73
2023/06/02 12:47:39;;;;;;;5.78;5.18;;;23.30;81.00;;;;;;6328026;27;84126;-72
2023/06/02 12:50:41;;;;;;;6.32;5.30;;;23.30;81.00;;;;;;6322536;27;83978;-73
2023/06/02 12:53:43;;;;;;;6.70;5.13;;;23.30;81.00;;;;;;6320847;27;82915;-72
2023/06/02 12:56:45;;;;;;;6.50;5.18;;;23.30;81.20;;;;;;6328271;27;84039;-73
2023/06/02 12:59:48;;;;;;;8.20;5.47;;;23.40;81.50;;;;;;6335056;27;84019;-72
2023/06/02 13:02:50;;;;;;;7.03;5.50;;;23.40;81.50;;;;;;6317497;27;84217;-72
2023/06/02 13:05:57;;;;;;;9.90;5.40;;;23.30;81.20;;;;;;6333731;27;83217;-72
2023/06/02 13:09:00;;;;;;;7.05;5.00;;;23.40;81.30;;;;;;6321223;27;84277;-74
2023/06/02 13:12:02;;;;;;;7.65;5.28;;;23.30;81.30;;;;;;6323187;27;85235;-73
2023/06/02 13:15:07;;;;;;;9.30;5.30;;;23.40;81.50;;;;;;6333854;27;84950;-73
2023/06/02 13:18:09;;;;;;;5.85;5.20;;;23.40;81.60;;;;;;6326773;27;84038;-73
2023/06/02 13:21:11;;;;;;;5.70;5.10;;;23.30;81.40;;;;;;6324232;27;84246;-73
2023/06/02 13:24:15;;;;;;;11.27;5.38;;;23.40;81.50;;;;;;6316919;27;84038;-74
2023/06/02 13:27:17;;;;;;;7.13;5.07;;;23.40;81.50;;;;;;6328826;27;82633;-72
2023/06/02 13:30:22;;;;;;;8.55;5.45;;;23.40;81.60;;;;;;6314386;27;83250;-72
2023/06/02 13:33:25;;;;;;;7.30;5.43;;;23.30;81.50;;;;;;6316174;27;84010;-73
2023/06/02 13:36:27;;;;;;;9.35;5.80;;;23.30;81.50;;;;;;6326108;27;83320;-76
2023/06/02 13:39:29;;;;;;;7.25;5.20;;;23.40;81.60;;;;;;6333574;27;84038;-74
2023/06/02 13:42:31;;;;;;;9.13;5.10;;;23.40;81.60;;;;;;6348155;27;84294;-74
2023/06/02 13:45:34;;;;;;;8.85;5.45;;;23.30;81.80;;;;;;6337291;27;84946;-74
2023/06/02 13:48:36;;;;;;;8.60;5.70;;;23.30;81.80;;;;;;6352427;27;84094;-75
2023/06/02 13:51:38;;;;;;;10.25;5.93;;;23.40;81.80;;;;;;6353726;27;82917;-74
2023/06/02 13:54:40;;;;;;;10.50;5.97;;;23.40;81.70;;;;;;6346296;27;84134;-75
2023/06/02 13:57:43;;;;;;;10.40;6.85;;;23.40;81.60;;;;;;6360997;27;84287;-74
2023/06/02 14:00:47;;;;;;;8.00;5.68;;;23.40;81.50;;;;;;6348837;27;84067;-74
2023/06/02 14:03:50;;;;;;;7.10;5.55;;;23.40;81.50;;;;;;6352448;27;82813;-75
2023/06/02 14:06:52;;;;;;;7.22;5.20;;;23.40;81.40;;;;;;6351588;27;83353;-74
2023/06/02 14:09:54;;;;;;;5.85;5.05;;;23.40;81.40;;;;;;6348234;27;83261;-74
2023/06/02 14:12:56;;;;;;;5.97;5.10;;;23.40;81.30;;;;;;6359833;27;84020;-76
2023/06/02 14:15:59;;;;;;;8.15;5.07;;;23.30;81.20;;;;;;6360825;27;85487;-74
2023/06/02 14:19:01;;;;;;;6.78;5.35;;;23.40;81.20;;;;;;6363316;27;82949;-75
2023/06/02 14:22:03;;;;;;;6.55;5.20;;;23.40;81.20;;;;;;6358186;27;84184;-75
2023/06/02 14:25:06;;;;;;;7.15;5.63;;;23.40;81.10;;;;;;6351640;27;83956;-75
2023/06/02 14:28:08;;;;;;;8.27;5.50;;;23.40;81.10;;;;;;6349712;27;84857;-73
2023/06/02 14:31:11;;;;;;;8.52;4.97;;;23.40;81.10;;;;;;6348024;27;83215;-74
2023/06/02 14:34:13;;;;;;;9.50;5.80;;;23.40;81.10;;;;;;6344102;27;84266;-76
2023/06/02 14:37:15;;;;;;;8.77;4.97;;;23.40;81.20;;;;;;6360783;27;83620;-76
2023/06/02 14:40:17;;;;;;;5.68;4.90;;;23.40;81.10;;;;;;6339950;27;83090;-74
2023/06/02 14:43:19;;;;;;;5.90;4.95;;;23.40;81.30;;;;;;6352690;27;83834;-74
2023/06/02 14:46:23;;;;;;;10.00;5.05;;;23.30;81.20;;;;;;6362563;27;86152;-76
2023/06/02 14:49:25;;;;;;;6.55;4.88;;;23.40;82.20;;;;;;6364093;27;83912;-75
2023/06/02 14:52:27;;;;;;;7.78;5.00;;;23.40;81.10;;;;;;6362363;27;84027;-75
2023/06/02 14:55:30;;;;;;;8.38;4.75;;;23.40;81.10;;;;;;6360411;27;84141;-74
2023/06/02 14:58:31;;;;;;;7.03;5.07;;;23.40;81.10;;;;;;6360225;27;83030;-73
2023/06/02 15:01:35;;;;;;;7.07;4.90;;;23.40;81.20;;;;;;6351837;27;84384;-74
2023/06/02 15:04:37;;;;;;;9.80;5.30;;;23.40;81.30;;;;;;6348020;27;84484;-75
2023/06/02 15:07:39;;;;;;;8.90;5.03;;;23.40;81.40;;;;;;6347152;27;83253;-75
2023/06/02 15:10:41;;;;;;;8.85;5.00;;;23.40;81.50;;;;;;6344540;27;84363;-75
2023/06/02 15:13:44;;;;;;;6.43;4.78;;;23.40;81.50;;;;;;6336889;27;84032;-74
2023/06/02 15:16:47;;;;;;;7.47;4.80;;;23.40;81.40;;;;;;6344418;27;85111;-75
2023/06/02 15:19:49;;;;;;;8.85;4.95;;;23.40;81.40;;;;;;6348641;27;82907;-75
2023/06/02 15:22:51;;;;;;;7.90;4.60;;;23.40;81.30;;;;;;6347575;27;84125;-75
2023/06/02 15:25:53;;;;;;;10.20;5.43;;;23.40;81.30;;;;;;6353393;27;84320;-73
2023/06/02 15:28:55;;;;;;;8.57;4.80;;;23.40;81.30;;;;;;6351256;27;83000;-74
2023/06/02 15:31:59;;;;;;;7.40;5.10;;;23.40;81.30;;;;;;6352541;27;84038;-74
2023/06/02 15:35:02;;;;;;;7.22;4.47;;;23.40;81.30;;;;;;6352043;27;83948;-74
2023/06/02 15:38:04;;;;;;;7.47;5.00;;;23.40;81.30;;;;;;6344928;27;83241;-73
2023/06/02 15:41:06;;;;;;;6.97;4.80;;;23.40;81.30;;;;;;6354490;27;84134;-73
2023/06/02 15:44:08;;;;;;;7.05;4.60;;;23.40;81.20;;;;;;6360606;27;82940;-74
2023/06/02 15:47:11;;;;;;;5.88;4.85;;;23.40;81.20;;;;;;6345995;27;84933;-74
2023/06/02 15:50:13;;;;;;;6.70;4.82;;;23.40;81.20;;;;;;6351642;27;82919;-75
2023/06/02 15:53:15;;;;;;;5.90;4.60;;;23.40;81.10;;;;;;6352871;27;84003;-74
2023/06/02 15:56:18;;;;;;;8.27;5.18;;;23.40;81.10;;;;;;6346778;27;84026;-74